Time;durP1;ratioP1;P1;durP2;ratioP2;P2;SDS_P1;SDS_P2;PMS_P1;PMS_P2;Temp;Humidity;BMP_temperature;BMP_pressure;BME280_temperature;BME280_humidity;BME280_pressure;Samples;Min_cycle;Max_cycle;Signal;HPM_P1;HPM_P2
2021/03/02 00:00:52;;;;;;;9.76;4.33;;;;;;;3.14;69.11;100502.34;354362;112;1963767;-73
2021/03/02 00:01:59;;;;;;;8.53;4.14;;;;;;;3.07;69.14;100505.56;358311;111;1961979;-72
2021/03/02 00:03:06;;;;;;;10.33;4.56;;;;;;;2.97;69.47;100496.69;354228;111;1962908;-72
2021/03/02 00:04:13;;;;;;;7.71;3.77;;;;;;;2.91;69.71;100489.23;314298;111;2867937;-73
2021/03/02 00:05:19;;;;;;;8.46;4.05;;;;;;;2.77;70.44;100494.94;359302;111;1962967;-72
2021/03/02 00:06:25;;;;;;;8.39;4.10;;;;;;;2.74;70.54;100489.87;355407;108;1962284;-72
2021/03/02 00:07:32;;;;;;;11.01;4.14;;;;;;;2.67;70.90;100491.37;360126;112;1962944;-72
2021/03/02 00:08:38;;;;;;;7.24;3.46;;;;;;;2.69;70.62;100481.42;322613;110;1989615;-72
2021/03/02 00:09:45;;;;;;;8.73;4.02;;;;;;;2.72;70.62;100478.48;358451;112;1961914;-72
2021/03/02 00:10:59;;;;;;;9.67;4.41;;;;;;;2.73;70.75;100481.03;356878;111;1962041;-71
2021/03/02 00:12:07;;;;;;;7.48;3.01;;;;;;;2.78;70.72;100465.46;360746;111;1963991;-72
2021/03/02 00:13:14;;;;;;;7.19;3.31;;;;;;;2.89;70.46;100469.00;353818;111;1963934;-72
2021/03/02 00:14:20;;;;;;;9.13;3.63;;;;;;;2.96;70.28;100459.45;358348;111;1961916;-73
2021/03/02 00:15:26;;;;;;;7.63;2.98;;;;;;;3.04;70.07;100460.47;319618;113;2234962;-72
2021/03/02 00:16:37;;;;;;;5.74;2.67;;;;;;;3.12;69.93;100458.91;359434;111;1961933;-72
2021/03/02 00:17:48;;;;;;;6.61;3.03;;;;;;;3.17;69.71;100468.19;355888;113;1964980;-72
2021/03/02 00:19:01;;;;;;;7.94;3.41;;;;;;;3.11;69.58;100452.73;355182;112;1962051;-72
2021/03/02 00:20:09;;;;;;;5.82;3.01;;;;;;;3.26;69.39;100464.70;357533;112;1960874;-72
2021/03/02 00:21:20;;;;;;;6.75;3.32;;;;;;;3.25;69.07;100464.83;312987;111;2238960;-72
2021/03/02 00:22:29;;;;;;;7.26;3.48;;;;;;;3.19;68.94;100466.23;357904;111;1961891;-71
2021/03/02 00:23:41;;;;;;;7.63;3.50;;;;;;;3.08;69.32;100453.86;359354;111;1961877;-72
2021/03/02 00:24:48;;;;;;;;;;;;;;;3.01;69.55;100458.05;362448;113;1961978;-72
2021/03/02 00:25:58;;;;;;;8.75;4.55;;;;;;;2.94;69.43;100453.39;356965;111;1960920;-72
2021/03/02 00:27:05;;;;;;;8.14;3.17;;;;;;;2.89;69.52;100459.17;357575;112;1961950;-72
2021/03/02 00:28:11;;;;;;;7.04;3.10;;;;;;;2.82;69.95;100453.52;358415;111;1962913;-71
2021/03/02 00:29:17;;;;;;;9.37;4.16;;;;;;;2.75;70.25;100449.73;317093;111;2715014;-72
2021/03/02 00:30:23;;;;;;;9.10;3.60;;;;;;;2.72;70.29;100457.14;359975;112;1962973;-71
2021/03/02 00:31:34;;;;;;;6.94;3.03;;;;;;;2.64;70.74;100445.31;321028;112;2676929;-72
2021/03/02 00:32:40;;;;;;;5.24;2.31;;;;;;;2.62;70.74;100438.45;359802;113;1961943;-72
2021/03/02 00:33:46;;;;;;;5.54;2.55;;;;;;;2.65;70.96;100446.19;308790;111;2129087;-71
2021/03/02 00:34:52;;;;;;;4.98;2.35;;;;;;;2.72;70.89;100443.80;358527;111;1961977;-72
2021/03/02 00:35:57;;;;;;;6.17;2.58;;;;;;;2.81;70.74;100432.33;358512;112;1961964;-72
2021/03/02 00:37:04;;;;;;;7.84;3.59;;;;;;;2.83;70.71;100433.87;359594;110;1961912;-71
2021/03/02 00:38:10;;;;;;;7.07;2.61;;;;;;;2.91;70.66;100435.87;302617;111;2184319;-71
2021/03/02 00:39:20;;;;;;;5.91;2.91;;;;;;;2.97;70.55;100434.47;337709;106;1960655;-72
2021/03/02 00:40:28;;;;;;;6.52;2.92;;;;;;;3.02;70.38;100430.39;361027;111;1961910;-72
2021/03/02 00:41:34;;;;;;;5.91;2.44;;;;;;;3.12;70.12;100421.55;328405;113;2536000;-72
2021/03/02 00:42:40;;;;;;;6.85;1.98;;;;;;;3.16;69.93;100421.13;356764;113;1961910;-72
2021/03/02 00:43:53;;;;;;;5.89;2.76;;;;;;;3.23;69.70;100418.77;360649;106;1960682;-72
2021/03/02 00:44:59;;;;;;;7.42;2.89;;;;;;;3.22;69.53;100423.23;325532;112;1962023;-72
2021/03/02 00:46:05;;;;;;;5.40;2.73;;;;;;;3.16;69.67;100413.13;351210;114;1963981;-72
2021/03/02 00:47:10;;;;;;;5.49;2.46;;;;;;;3.14;69.46;100415.08;351369;115;1963009;-74
2021/03/02 00:48:16;;;;;;;9.38;3.46;;;;;;;3.05;69.52;100413.27;349393;115;1962049;-72
2021/03/02 00:49:22;;;;;;;7.14;3.38;;;;;;;2.94;69.75;100406.23;306787;114;2176751;-72
2021/03/02 00:50:29;;;;;;;7.54;3.56;;;;;;;2.83;70.16;100395.66;351796;113;1961978;-71
2021/03/02 00:51:35;;;;;;;6.49;2.89;;;;;;;2.71;70.46;100402.11;356579;106;1961964;-72
2021/03/02 00:52:41;;;;;;;7.41;2.60;;;;;;;2.60;70.25;100395.07;334452;110;2456911;-71
2021/03/02 00:53:46;;;;;;;7.26;3.29;;;;;;;2.54;70.91;100403.59;341163;110;1961994;-72
2021/03/02 00:54:51;;;;;;;6.39;3.28;;;;;;;2.50;71.12;100399.53;349661;114;1963808;-72
2021/03/02 00:55:57;;;;;;;6.11;3.33;;;;;;;2.48;71.48;100412.98;356294;112;1962010;-72
2021/03/02 00:57:03;;;;;;;7.63;3.36;;;;;;;2.54;71.35;100404.47;362427;110;1961977;-72
2021/03/02 00:58:09;;;;;;;5.58;2.53;;;;;;;2.53;71.53;100399.25;349928;116;1962957;-72
2021/03/02 00:59:25;;;;;;;5.54;2.67;;;;;;;2.52;71.61;100401.08;324262;113;2595049;-72
2021/03/02 01:00:34;;;;;;;6.41;2.40;;;;;;;2.53;71.58;100400.09;361017;111;1961971;-74
2021/03/02 01:01:44;;;;;;;8.01;2.97;;;;;;;2.60;71.46;100389.73;370938;109;1961959;-73
2021/03/02 01:02:50;;;;;;;7.07;3.06;;;;;;;2.57;71.64;100380.19;336861;110;1961948;-72
2021/03/02 01:03:55;;;;;;;6.69;2.96;;;;;;;2.61;71.51;100394.91;368169;108;1962997;-72
2021/03/02 01:05:01;;;;;;;5.72;2.51;;;;;;;2.60;71.52;100390.57;370312;108;1961951;-72
2021/03/02 01:06:08;;;;;;;6.84;2.79;;;;;;;2.62;71.33;100377.95;368300;110;1962042;-72
2021/03/02 01:07:14;;;;;;;8.81;3.38;;;;;;;2.62;71.64;100379.78;321521;108;2844923;-72
2021/03/02 01:08:19;;;;;;;5.00;2.51;;;;;;;2.63;71.46;100386.79;337298;111;1962010;-72
2021/03/02 01:09:24;;;;;;;7.64;2.99;;;;;;;2.68;71.33;100389.89;350765;111;1963047;-72
2021/03/02 01:10:31;;;;;;;5.75;2.84;;;;;;;2.64;71.50;100389.30;364578;109;1962992;-73
2021/03/02 01:11:39;;;;;;;6.28;2.93;;;;;;;2.68;71.37;100378.38;335610;111;1961979;-74
2021/03/02 01:12:52;;;;;;;8.54;3.32;;;;;;;2.75;70.96;100383.03;354766;115;1962061;-72
2021/03/02 01:13:58;;;;;;;7.16;2.91;;;;;;;2.74;71.04;100386.66;306210;113;2081484;-73
2021/03/02 01:15:07;;;;;;;7.24;3.13;;;;;;;2.77;70.85;100370.38;350457;115;1962014;-71
2021/03/02 01:16:13;;;;;;;6.43;3.13;;;;;;;2.78;70.81;100389.89;317431;113;1961985;-71
2021/03/02 01:17:19;;;;;;;6.76;3.12;;;;;;;2.79;70.78;100381.76;349283;114;1961922;-72
2021/03/02 01:18:24;;;;;;;7.30;2.89;;;;;;;2.74;70.90;100369.81;350357;114;1961881;-72
2021/03/02 01:19:30;;;;;;;7.93;3.01;;;;;;;2.73;71.03;100379.66;352387;113;1963997;-72
2021/03/02 01:20:36;;;;;;;7.02;2.67;;;;;;;2.79;70.63;100371.09;350457;114;1961909;-72
2021/03/02 01:21:42;;;;;;;5.83;2.61;;;;;;;2.76;70.77;100374.03;311119;113;2689022;-72
2021/03/02 01:22:48;;;;;;;5.87;2.45;;;;;;;2.78;70.66;100357.88;335072;116;1962019;-71
2021/03/02 01:23:53;;;;;;;6.99;3.52;;;;;;;2.74;70.76;100359.98;343933;115;1961962;-71
2021/03/02 01:24:58;;;;;;;7.77;3.22;;;;;;;2.79;70.47;100363.08;351377;113;1961942;-72
2021/03/02 01:26:04;;;;;;;5.45;2.49;;;;;;;2.72;70.80;100366.44;351629;113;1961992;-71
2021/03/02 01:27:10;;;;;;;6.58;3.19;;;;;;;2.74;70.80;100372.48;352083;113;1961932;-72
2021/03/02 01:28:16;;;;;;;6.49;2.91;;;;;;;2.77;70.64;100359.70;305070;114;2804958;-71
2021/03/02 01:29:22;;;;;;;6.54;3.02;;;;;;;2.83;70.42;100350.30;345025;116;1962816;-71
2021/03/02 01:30:28;;;;;;;6.71;2.99;;;;;;;2.80;70.39;100347.91;350224;113;1961916;-71
2021/03/02 01:31:33;;;;;;;6.58;2.68;;;;;;;2.77;70.49;100354.37;350170;113;1961943;-72
2021/03/02 01:32:40;;;;;;;7.62;3.62;;;;;;;2.75;70.50;100359.02;349958;116;1961989;-71
2021/03/02 01:33:45;;;;;;;6.87;3.16;;;;;;;2.75;70.60;100342.15;319739;105;2042440;-72
2021/03/02 01:34:51;;;;;;;6.89;2.69;;;;;;;2.77;70.65;100342.86;351040;110;1961978;-72
2021/03/02 01:35:56;;;;;;;9.12;4.65;;;;;;;2.82;70.34;100336.12;364741;110;1962969;-71
2021/03/02 01:37:01;;;;;;;6.20;3.19;;;;;;;2.75;70.48;100332.34;361111;111;1962039;-72
2021/03/02 01:38:07;;;;;;;6.72;3.29;;;;;;;2.74;70.49;100330.64;355056;112;1961962;-72
2021/03/02 01:39:12;;;;;;;6.89;3.33;;;;;;;2.71;70.70;100333.59;360230;110;1961979;-71
2021/03/02 01:40:20;;;;;;;7.96;3.03;;;;;;;2.69;70.79;100346.22;362469;111;1962014;-72
2021/03/02 01:41:25;;;;;;;6.97;3.45;;;;;;;2.66;70.91;100333.16;352804;111;1962002;-72
2021/03/02 01:42:30;;;;;;;6.88;3.78;;;;;;;2.68;70.70;100325.03;362675;112;1963958;-72
2021/03/02 01:43:36;;;;;;;7.17;4.42;;;;;;;2.57;71.35;100328.67;361888;111;1961980;-71
2021/03/02 01:44:42;;;;;;;7.59;3.41;;;;;;;2.62;70.97;100329.94;359849;110;1961942;-71
2021/03/02 01:45:48;;;;;;;7.89;3.51;;;;;;;2.68;70.80;100335.70;358762;112;1962045;-72
2021/03/02 01:46:55;;;;;;;8.46;3.32;;;;;;;2.66;70.86;100338.50;337023;112;2406000;-71
2021/03/02 01:48:01;;;;;;;7.29;3.53;;;;;;;2.65;70.95;100344.83;355939;113;1963006;-71
2021/03/02 01:49:06;;;;;;;8.18;3.70;;;;;;;2.66;70.87;100318.98;356612;113;1961962;-72
2021/03/02 01:50:13;;;;;;;7.14;3.27;;;;;;;2.58;71.29;100317.01;357016;113;1965024;-72
2021/03/02 01:51:18;;;;;;;6.22;3.47;;;;;;;2.54;71.43;100327.12;337788;112;2283014;-72
2021/03/02 01:52:24;;;;;;;6.61;3.16;;;;;;;2.58;71.26;100319.67;344804;113;1962049;-70
2021/03/02 01:53:29;;;;;;;7.44;3.68;;;;;;;2.59;71.25;100324.02;357966;113;1962968;-72
2021/03/02 01:54:37;;;;;;;7.98;3.26;;;;;;;2.60;71.17;100304.39;357375;112;1961968;-71
2021/03/02 01:55:43;;;;;;;7.41;3.78;;;;;;;2.55;71.41;100315.46;292668;107;2231343;-71
2021/03/02 01:56:48;;;;;;;8.21;4.24;;;;;;;2.60;71.23;100307.05;362076;110;1962036;-71
2021/03/02 01:57:54;;;;;;;8.04;3.63;;;;;;;2.56;71.27;100322.47;360814;111;1961952;-72
2021/03/02 01:58:59;;;;;;;7.06;3.58;;;;;;;2.63;71.09;100304.10;363580;110;1962007;-72
2021/03/02 02:00:22;;;;;;;8.22;3.61;;;;;;;2.58;71.19;100311.67;359174;110;1963972;-71
2021/03/02 02:01:39;;;;;;;7.31;3.63;;;;;;;2.55;71.45;100317.29;342660;111;1963178;-72
2021/03/02 02:03:09;;;;;;;8.58;3.93;;;;;;;2.49;71.83;100315.16;353449;114;1964999;-72
2021/03/02 02:04:25;;;;;;;5.79;3.42;;;;;;;2.52;71.59;100310.41;353346;113;1962050;-72
2021/03/02 02:05:34;;;;;;;7.85;3.82;;;;;;;2.53;71.58;100328.08;350068;114;1961957;-72
2021/03/02 02:06:54;;;;;;;8.12;3.51;;;;;;;2.55;71.57;100314.63;331243;113;2364019;-73
2021/03/02 02:08:03;;;;;;;11.98;3.94;;;;;;;2.51;71.54;100300.70;348477;115;1962041;-72
2021/03/02 02:09:34;;;;;;;7.62;4.18;;;;;;;2.48;71.67;100300.98;323647;114;2238969;-72
2021/03/02 02:10:53;;;;;;;7.86;4.14;;;;;;;2.52;71.55;100296.23;291859;115;2195454;-72
2021/03/02 02:12:29;;;;;;;6.61;3.76;;;;;;;2.52;71.50;100297.08;347987;114;1962028;-72
2021/03/02 02:13:40;;;;;;;9.71;3.80;;;;;;;2.57;71.20;100286.00;348645;113;1961899;-72
2021/03/02 02:14:50;;;;;;;8.60;3.66;;;;;;;2.53;71.56;100303.24;350123;106;1961933;-70
2021/03/02 02:15:59;;;;;;;9.31;4.26;;;;;;;2.56;71.43;100297.63;339532;116;1964965;-71
2021/03/02 02:17:08;;;;;;;8.38;3.94;;;;;;;2.56;71.26;100286.96;336321;112;2310973;-71
2021/03/02 02:18:18;;;;;;;7.31;3.66;;;;;;;2.53;71.43;100305.91;313763;110;2833929;-71
2021/03/02 02:19:46;;;;;;;8.47;3.84;;;;;;;2.46;71.83;100297.64;309210;111;2863937;-71
2021/03/02 02:21:07;;;;;;;9.98;4.58;;;;;;;2.51;71.63;100294.53;345905;117;1962996;-70
2021/03/02 02:22:22;;;;;;;8.31;4.21;;;;;;;2.42;72.04;100305.05;360364;111;1961983;-71
2021/03/02 02:23:55;;;;;;;8.85;3.67;;;;;;;2.47;71.83;100301.14;357182;114;1963177;-71
2021/03/02 02:25:28;;;;;;;8.94;4.02;;;;;;;2.48;71.78;100310.81;360274;112;1961921;-72
2021/03/02 02:26:56;;;;;;;8.37;3.69;;;;;;;2.44;71.99;100307.59;334124;113;1963996;-71
2021/03/02 02:28:03;;;;;;;8.57;4.44;;;;;;;2.45;71.96;100311.09;358931;112;1961938;-71
2021/03/02 02:29:11;;;;;;;7.74;3.92;;;;;;;2.50;71.86;100322.19;338406;112;1961932;-71
2021/03/02 02:30:17;;;;;;;8.89;4.03;;;;;;;2.56;71.64;100289.62;358118;112;1963978;-71
2021/03/02 02:31:26;;;;;;;8.89;4.21;;;;;;;2.54;71.80;100291.59;311809;112;2097554;-72
2021/03/02 02:32:33;;;;;;;8.49;3.97;;;;;;;2.55;71.77;100286.12;333159;111;2382872;-72
2021/03/02 02:33:43;;;;;;;9.07;3.98;;;;;;;2.52;71.93;100290.91;361850;105;1960893;-72
2021/03/02 02:34:50;;;;;;;7.64;3.98;;;;;;;2.50;72.06;100274.19;365007;110;1961979;-72
2021/03/02 02:35:58;;;;;;;8.62;4.68;;;;;;;2.61;71.60;100293.56;365797;108;1961789;-72
2021/03/02 02:37:05;;;;;;;8.46;3.95;;;;;;;2.64;71.41;100301.28;365895;108;1963024;-71
2021/03/02 02:38:14;;;;;;;7.73;3.91;;;;;;;2.66;71.36;100281.64;364111;108;1962016;-71
2021/03/02 02:39:22;;;;;;;7.45;3.75;;;;;;;2.68;71.25;100285.86;365409;108;1961952;-71
2021/03/02 02:40:28;;;;;;;7.79;3.88;;;;;;;2.69;71.17;100271.52;365516;108;1961984;-71
2021/03/02 02:41:35;;;;;;;7.51;4.07;;;;;;;2.66;71.25;100269.14;367223;108;1962011;-72
2021/03/02 02:42:45;;;;;;;10.24;4.38;;;;;;;2.66;71.22;100282.48;360616;110;1963946;-72
2021/03/02 02:43:53;;;;;;;8.99;3.83;;;;;;;2.62;71.45;100297.09;327618;108;2240984;-71
2021/03/02 02:44:58;;;;;;;8.99;4.71;;;;;;;2.66;71.22;100260.30;365908;108;1962011;-71
2021/03/02 02:46:06;;;;;;;8.78;3.93;;;;;;;2.70;71.04;100267.89;367086;110;1963308;-71
2021/03/02 02:47:12;;;;;;;7.67;3.81;;;;;;;2.67;71.17;100273.48;366166;110;1964995;-71
2021/03/02 02:48:18;;;;;;;9.34;3.88;;;;;;;2.63;71.28;100272.09;362846;108;1961958;-71
2021/03/02 02:49:25;;;;;;;7.07;3.74;;;;;;;2.60;71.31;100299.89;367846;104;1962008;-72
2021/03/02 02:50:31;;;;;;;8.46;3.72;;;;;;;2.74;70.80;100277.28;310483;110;2126121;-71
2021/03/02 02:51:38;;;;;;;9.16;4.17;;;;;;;2.74;70.78;100287.12;363627;110;1962001;-71
2021/03/02 02:52:45;;;;;;;8.87;3.86;;;;;;;2.70;70.95;100256.36;361052;112;1964000;-71
2021/03/02 02:53:52;;;;;;;8.61;4.28;;;;;;;2.67;71.23;100272.64;360089;109;1964024;-71
2021/03/02 02:54:59;;;;;;;9.86;4.48;;;;;;;2.61;71.47;100260.72;356661;111;1962038;-71
2021/03/02 02:56:07;;;;;;;7.38;3.94;;;;;;;2.42;72.13;100257.05;313738;112;2080190;-71
2021/03/02 02:57:17;;;;;;;7.22;4.19;;;;;;;2.61;71.50;100255.38;359978;112;1961892;-71
2021/03/02 02:58:28;;;;;;;7.87;3.84;;;;;;;2.60;71.59;100265.22;359257;110;1960930;-71
2021/03/02 02:59:37;;;;;;;9.23;4.34;;;;;;;2.58;71.68;100263.67;359698;112;1962382;-71
2021/03/02 03:00:47;;;;;;;11.68;5.06;;;;;;;2.56;71.72;100265.62;297210;112;2217147;-71
2021/03/02 03:02:03;;;;;;;9.01;4.18;;;;;;;2.55;71.72;100272.79;325808;112;2541058;-70
2021/03/02 03:03:11;;;;;;;7.45;4.08;;;;;;;2.58;71.54;100282.34;313374;107;2240958;-72
2021/03/02 03:04:21;;;;;;;7.50;3.65;;;;;;;2.35;72.38;100257.74;354536;112;1962044;-72
2021/03/02 03:05:29;;;;;;;7.02;4.38;;;;;;;2.62;71.33;100271.26;353869;114;1963018;-71
2021/03/02 03:06:40;;;;;;;8.64;4.73;;;;;;;2.58;71.43;100271.67;355211;112;1961973;-71
2021/03/02 03:07:55;;;;;;;7.03;4.28;;;;;;;2.61;71.23;100244.72;354536;112;1962982;-72
2021/03/02 03:09:04;;;;;;;8.95;4.37;;;;;;;2.57;71.37;100252.16;354528;112;1961930;-71
2021/03/02 03:10:11;;;;;;;7.28;3.27;;;;;;;2.50;71.65;100258.19;353284;112;1961936;-72
2021/03/02 03:11:21;;;;;;;7.42;3.85;;;;;;;2.57;71.39;100259.33;305795;112;2869973;-72
2021/03/02 03:12:30;;;;;;;9.10;4.26;;;;;;;2.58;71.47;100242.33;354614;114;1961982;-71
2021/03/02 03:13:39;;;;;;;7.01;3.83;;;;;;;2.63;71.14;100245.42;356205;110;1961976;-72
2021/03/02 03:14:52;;;;;;;7.79;3.86;;;;;;;2.53;71.76;100257.91;352172;114;1962006;-72
2021/03/02 03:16:04;;;;;;;7.24;3.64;;;;;;;2.60;71.45;100253.70;353372;112;1961959;-70
2021/03/02 03:17:12;;;;;;;7.89;3.90;;;;;;;2.46;71.98;100262.97;352697;112;1961926;-71
2021/03/02 03:18:25;;;;;;;9.77;4.47;;;;;;;2.46;71.98;100262.97;354178;112;1972005;-70
2021/03/02 03:19:33;;;;;;;8.56;4.77;;;;;;;2.42;72.21;100275.72;354726;114;1962052;-70
2021/03/02 03:20:40;;;;;;;10.01;4.76;;;;;;;2.53;71.79;100256.08;353964;112;1962029;-72
2021/03/02 03:21:46;;;;;;;10.27;5.04;;;;;;;2.49;72.03;100261.82;292766;114;2241730;-70
2021/03/02 03:22:54;;;;;;;8.72;5.07;;;;;;;2.54;71.85;100254.25;352426;112;1961871;-70
2021/03/02 03:24:00;;;;;;;8.26;4.69;;;;;;;2.53;71.80;100255.24;355752;112;1961908;-71
2021/03/02 03:25:08;;;;;;;7.52;4.38;;;;;;;2.41;72.32;100273.21;333690;114;1961978;-70
2021/03/02 03:26:16;;;;;;;8.34;4.54;;;;;;;2.50;72.10;100255.53;356185;112;1961975;-72
2021/03/02 03:27:22;;;;;;;7.71;4.63;;;;;;;2.50;72.00;100258.19;355138;112;1961951;-71
2021/03/02 03:28:30;;;;;;;7.81;4.57;;;;;;;2.54;71.78;100257.78;355098;114;1962051;-71
2021/03/02 03:29:36;;;;;;;8.11;4.38;;;;;;;2.51;72.02;100267.86;332105;113;1961945;-71
2021/03/02 03:30:45;;;;;;;9.29;4.16;;;;;;;2.55;71.86;100242.62;320216;112;2615894;-72
2021/03/02 03:31:54;;;;;;;8.89;4.13;;;;;;;2.54;71.89;100247.12;355225;112;1962013;-71
2021/03/02 03:33:02;;;;;;;9.66;4.91;;;;;;;2.59;71.72;100236.00;336229;112;1962942;-73
2021/03/02 03:34:09;;;;;;;8.89;4.56;;;;;;;2.54;72.03;100230.25;357371;112;1961822;-71
2021/03/02 03:35:15;;;;;;;7.51;4.05;;;;;;;2.57;71.65;100251.33;349118;105;1961833;-70
2021/03/02 03:36:24;;;;;;;8.86;4.73;;;;;;;2.62;71.59;100263.26;368291;110;1962936;-71
2021/03/02 03:37:30;;;;;;;7.78;4.26;;;;;;;2.56;71.81;100228.29;368329;110;1961905;-72
2021/03/02 03:38:35;;;;;;;9.07;4.64;;;;;;;2.56;71.84;100225.62;358805;105;1960868;-72
2021/03/02 03:39:41;;;;;;;10.62;4.33;;;;;;;2.55;71.95;100231.95;367685;108;1961864;-72
2021/03/02 03:40:48;;;;;;;8.48;4.36;;;;;;;2.66;71.43;100226.47;309615;108;2188739;-72
2021/03/02 03:41:54;;;;;;;7.79;4.48;;;;;;;2.63;71.57;100224.92;350015;110;1964963;-72
2021/03/02 03:42:59;;;;;;;10.14;5.21;;;;;;;2.54;71.96;100224.91;365101;111;1963944;-71
2021/03/02 03:44:05;;;;;;;10.58;4.41;;;;;;;2.55;71.96;100231.95;358539;113;1961996;-71
2021/03/02 03:45:11;;;;;;;7.85;4.66;;;;;;;2.60;71.68;100248.38;364004;105;1960834;-72
2021/03/02 03:46:19;;;;;;;9.23;5.42;;;;;;;2.60;71.59;100241.21;366481;108;1961924;-72
2021/03/02 03:47:25;;;;;;;10.15;5.50;;;;;;;2.59;71.72;100242.20;365092;108;1962053;-72
2021/03/02 03:48:31;;;;;;;10.04;5.11;;;;;;;2.62;71.68;100243.75;366359;111;1961953;-71
2021/03/02 03:49:37;;;;;;;9.23;4.99;;;;;;;2.64;71.53;100253.27;329153;111;2610022;-72
2021/03/02 03:50:44;;;;;;;8.55;4.31;;;;;;;2.56;71.89;100242.46;365701;111;1962933;-71
2021/03/02 03:51:52;;;;;;;10.69;5.48;;;;;;;2.56;71.83;100236.29;363926;110;1961965;-72
2021/03/02 03:53:00;;;;;;;10.23;6.18;;;;;;;2.51;72.17;100233.20;362098;111;1962013;-71
2021/03/02 03:54:09;;;;;;;10.33;5.08;;;;;;;2.54;71.97;100231.12;317233;110;2816971;-73
2021/03/02 03:55:18;;;;;;;9.22;4.85;;;;;;;2.54;71.98;100231.12;365096;111;1961946;-72
2021/03/02 03:56:26;;;;;;;8.81;5.08;;;;;;;2.60;71.72;100216.37;364708;104;1960667;-70
2021/03/02 03:57:32;;;;;;;9.63;5.44;;;;;;;2.48;72.33;100233.48;365532;109;1961871;-71
2021/03/02 03:58:40;;;;;;;9.03;5.19;;;;;;;2.48;72.31;100239.66;366854;109;1962886;-70
2021/03/02 03:59:46;;;;;;;9.69;5.30;;;;;;;2.42;72.41;100227.73;324963;111;2667026;-71
2021/03/02 04:00:54;;;;;;;8.66;5.48;;;;;;;2.55;72.05;100230.13;359880;111;1961959;-70
2021/03/02 04:02:01;;;;;;;9.11;4.97;;;;;;;2.46;72.32;100230.98;331093;111;2900903;-70
2021/03/02 04:03:07;;;;;;;10.97;5.48;;;;;;;2.51;72.10;100220.70;359872;111;1962002;-71
2021/03/02 04:04:15;;;;;;;8.30;5.44;;;;;;;2.50;72.20;100221.70;361956;110;1962036;-71
2021/03/02 04:05:21;;;;;;;10.44;5.81;;;;;;;2.46;72.45;100224.77;318202;111;2030973;-71
2021/03/02 04:06:26;;;;;;;12.18;5.21;;;;;;;2.37;72.75;100218.47;362197;111;1962024;-71
2021/03/02 04:07:37;;;;;;;9.41;5.68;;;;;;;2.53;72.17;100225.91;362694;111;1963983;-71
2021/03/02 04:08:42;;;;;;;8.61;4.98;;;;;;;2.51;72.19;100215.37;360906;111;1961995;-70
2021/03/02 04:15:25;;;;;;;8.88;5.47;;;;;;;2.72;71.71;100215.22;359942;104;2564951;-70
2021/03/02 04:16:33;;;;;;;9.03;5.44;;;;;;;2.61;71.73;100213.55;316712;105;2233722;-70
2021/03/02 04:17:39;;;;;;;9.03;5.19;;;;;;;2.58;71.87;100207.66;361496;106;1961964;-71
2021/03/02 04:18:45;;;;;;;10.00;5.27;;;;;;;2.55;72.09;100210.62;375351;107;1961945;-71
2021/03/02 04:19:50;;;;;;;10.70;5.81;;;;;;;2.66;71.68;100213.13;369969;109;1961939;-70
2021/03/02 04:21:07;;;;;;;8.18;4.93;;;;;;;2.56;72.08;100207.79;377470;107;1963913;-72
2021/03/02 04:22:12;;;;;;;10.38;5.41;;;;;;;2.75;71.41;100200.75;338907;109;2432949;-71
2021/03/02 04:23:18;;;;;;;9.14;5.23;;;;;;;2.71;71.28;100210.05;354475;109;1961993;-72
2021/03/02 04:24:24;;;;;;;8.75;4.69;;;;;;;2.71;71.33;100194.04;363574;112;1961908;-72
2021/03/02 04:25:30;;;;;;;10.87;5.75;;;;;;;2.67;71.40;100203.30;356110;114;1961986;-71
2021/03/02 04:26:37;;;;;;;8.04;5.57;;;;;;;2.62;71.54;100217.08;323797;114;2236069;-72
2021/03/02 04:27:42;;;;;;;8.00;4.52;;;;;;;2.66;71.48;100191.79;328213;112;1962963;-73
2021/03/02 04:28:48;;;;;;;10.51;5.29;;;;;;;2.58;71.82;100199.66;346378;115;1962027;-72
2021/03/02 04:29:53;;;;;;;9.53;4.94;;;;;;;2.53;71.66;100215.23;342521;113;1960688;-71
2021/03/02 04:30:58;;;;;;;8.66;4.55;;;;;;;2.43;72.32;100217.89;352895;113;1964983;-71
2021/03/02 04:32:04;;;;;;;9.32;5.08;;;;;;;2.48;72.34;100193.48;359959;113;1963030;-71
2021/03/02 04:33:10;;;;;;;9.45;4.74;;;;;;;2.51;72.07;100194.03;358707;113;1961950;-72
2021/03/02 04:34:16;;;;;;;11.28;5.69;;;;;;;2.60;71.64;100187.03;320709;114;2389945;-72
2021/03/02 04:35:22;;;;;;;10.18;5.75;;;;;;;2.56;71.88;100194.45;340889;117;1962010;-72
2021/03/02 04:36:28;;;;;;;9.57;5.48;;;;;;;2.60;71.72;100201.20;357955;113;1961962;-71
2021/03/02 04:37:37;;;;;;;10.49;5.16;;;;;;;2.63;71.56;100202.75;360489;113;1961953;-73
2021/03/02 04:38:42;;;;;;;9.89;5.41;;;;;;;2.57;71.84;100200.66;354670;113;1962010;-72
2021/03/02 04:39:47;;;;;;;8.57;4.91;;;;;;;2.63;71.58;100184.08;365625;106;1963071;-71
2021/03/02 04:40:54;;;;;;;10.44;4.94;;;;;;;2.46;72.31;100184.78;368513;110;1960959;-71
2021/03/02 04:42:00;;;;;;;11.16;4.92;;;;;;;2.54;72.00;100185.78;332559;110;2536041;-71
2021/03/02 04:43:14;;;;;;;10.96;4.51;;;;;;;2.52;72.00;100200.23;340873;108;1961863;-71
2021/03/02 04:44:21;;;;;;;9.56;4.63;;;;;;;2.48;72.14;100188.16;362335;109;1961948;-72
2021/03/02 04:45:27;;;;;;;6.56;3.65;;;;;;;2.60;71.71;100197.70;368527;108;1961935;-73
2021/03/02 04:46:34;;;;;;;7.52;4.27;;;;;;;2.59;71.48;100207.53;328384;109;2603964;-73
2021/03/02 04:47:42;;;;;;;8.70;4.74;;;;;;;2.59;71.45;100178.20;357716;109;1962000;-71
2021/03/02 04:48:49;;;;;;;9.42;4.44;;;;;;;2.45;72.16;100183.11;368958;109;1961886;-71
2021/03/02 04:49:54;;;;;;;8.37;4.48;;;;;;;2.62;71.54;100179.73;348384;109;1966889;-73
2021/03/02 04:51:03;;;;;;;10.04;4.56;;;;;;;2.49;71.89;100190.69;364027;109;1964026;-73
2021/03/02 04:52:09;;;;;;;8.30;3.77;;;;;;;2.38;72.40;100202.34;366023;110;1961992;-71
2021/03/02 04:53:15;;;;;;;9.56;4.02;;;;;;;2.46;72.19;100184.78;369830;109;1962044;-73
2021/03/02 04:54:20;;;;;;;6.42;3.70;;;;;;;2.55;71.69;100168.78;370286;109;1963960;-72
2021/03/02 04:55:25;;;;;;;10.59;5.35;;;;;;;2.51;71.87;100179.86;365080;109;1962026;-73
2021/03/02 04:56:32;;;;;;;8.82;4.62;;;;;;;2.45;72.16;100178.61;369256;109;1963958;-72
2021/03/02 04:57:39;;;;;;;9.78;4.96;;;;;;;2.57;71.67;100176.66;336409;109;2564040;-73
2021/03/02 04:58:44;;;;;;;9.28;4.65;;;;;;;2.58;71.60;100194.33;365357;109;1961943;-73
2021/03/02 04:59:49;;;;;;;7.48;3.70;;;;;;;2.50;71.94;100175.53;367273;109;1961919;-72
2021/03/02 05:00:56;;;;;;;8.51;4.33;;;;;;;2.56;71.80;100161.62;367618;109;1962023;-73
2021/03/02 05:02:02;;;;;;;7.73;4.51;;;;;;;2.38;72.44;100193.48;317596;109;2837006;-73
2021/03/02 05:03:07;;;;;;;7.21;4.14;;;;;;;2.47;72.23;100181.15;352628;109;1961957;-73
2021/03/02 05:04:14;;;;;;;8.22;4.09;;;;;;;2.49;72.00;100169.36;370654;109;1961943;-72
2021/03/02 05:05:19;;;;;;;9.49;4.90;;;;;;;2.33;72.60;100180.59;371616;109;1961919;-72
2021/03/02 05:06:25;;;;;;;7.73;3.81;;;;;;;2.49;72.03;100180.02;364933;109;1961971;-72
2021/03/02 05:07:32;;;;;;;8.16;4.35;;;;;;;2.50;71.94;100179.03;326452;111;2634906;-71
2021/03/02 05:08:37;;;;;;;9.28;4.43;;;;;;;2.39;72.45;100165.85;360747;111;1963824;-72
2021/03/02 05:09:42;;;;;;;7.38;4.25;;;;;;;2.41;72.46;100167.39;372831;108;1961980;-73
2021/03/02 05:10:48;;;;;;;8.11;3.97;;;;;;;2.42;72.30;100161.06;370452;108;1962016;-71
2021/03/02 05:11:54;;;;;;;9.89;4.58;;;;;;;2.40;72.38;100187.02;369946;108;1962995;-72
2021/03/02 05:12:59;;;;;;;9.26;4.62;;;;;;;2.46;72.25;100174.98;373667;108;1961981;-72
2021/03/02 05:14:05;;;;;;;7.14;3.97;;;;;;;2.46;72.21;100166.11;318992;108;2838008;-72
2021/03/02 05:15:12;;;;;;;7.65;3.51;;;;;;;2.44;72.02;100171.61;369399;108;1961997;-72
2021/03/02 05:16:17;;;;;;;8.53;3.88;;;;;;;2.49;71.95;100173.83;375260;108;1962989;-72
2021/03/02 05:17:24;;;;;;;8.45;4.21;;;;;;;2.44;72.02;100187.60;374389;108;1961909;-72
2021/03/02 05:18:29;;;;;;;8.74;3.72;;;;;;;2.47;72.03;100176.65;352264;108;2232993;-71